createdAt,value
2018-03-23T00:01:45.331Z,92.20
2018-03-23T00:03:48.660Z,93.30
2018-03-23T00:05:52.782Z,92.90
2018-03-23T00:07:56.116Z,93.00
2018-03-23T00:09:59.449Z,92.90
2018-03-23T00:12:02.798Z,92.10
2018-03-23T00:14:06.130Z,92.70
2018-03-23T00:16:09.483Z,92.60
2018-03-23T00:18:12.847Z,92.60
2018-03-23T00:20:17.112Z,94.10
2018-03-23T00:22:21.252Z,92.70
2018-03-23T00:24:25.382Z,93.90
2018-03-23T00:26:29.490Z,92.70
2018-03-23T00:28:33.580Z,92.80
2018-03-23T00:30:37.695Z,92.70
2018-03-23T00:32:41.799Z,92.80
2018-03-23T00:34:45.145Z,92.70
2018-03-23T00:36:48.510Z,92.10
2018-03-23T00:38:51.902Z,92.70
2018-03-23T00:40:55.244Z,92.90
2018-03-23T00:42:58.644Z,94.10
2018-03-23T00:45:02.009Z,93.30
2018-03-23T00:47:05.345Z,93.80
2018-03-23T00:49:09.447Z,93.80
2018-03-23T00:51:13.558Z,92.30
2018-03-23T00:53:17.705Z,92.10
2018-03-23T00:55:21.030Z,92.10
2018-03-23T00:57:26.129Z,92.40
2018-03-23T00:59:29.492Z,92.50
2018-03-23T01:01:32.848Z,93.70
2018-03-23T01:03:36.228Z,92.40
2018-03-23T01:05:39.562Z,92.50
2018-03-23T01:07:43.703Z,92.80
2018-03-23T01:09:47.033Z,92.80
2018-03-23T01:11:50.358Z,92.40
2018-03-23T01:13:54.501Z,92.80
2018-03-23T01:15:57.833Z,92.70
2018-03-23T01:18:01.173Z,92.80
2018-03-23T01:20:04.529Z,92.60
2018-03-23T01:22:15.481Z,93.80
2018-03-23T01:24:18.860Z,93.80
2018-03-23T01:26:22.183Z,92.50
2018-03-23T01:28:25.529Z,92.80
2018-03-23T01:30:28.864Z,92.70
2018-03-23T01:32:32.173Z,92.50
2018-03-23T01:34:36.321Z,92.60
2018-03-23T01:36:39.666Z,92.70
2018-03-23T01:38:43.756Z,92.60
2018-03-23T01:40:47.087Z,92.70
2018-03-23T01:42:50.409Z,94.00
2018-03-23T01:44:53.768Z,92.80
2018-03-23T01:46:57.126Z,92.70
2018-03-23T01:49:00.448Z,94.00
2018-03-23T01:51:03.809Z,93.90
2018-03-23T01:53:07.921Z,93.60
2018-03-23T01:55:12.092Z,94.00
2018-03-23T01:57:15.435Z,94.10
2018-03-23T01:59:19.548Z,92.80
2018-03-23T02:01:23.661Z,94.10
2018-03-23T02:03:26.996Z,93.90
2018-03-23T02:05:30.382Z,94.00
2018-03-23T02:07:33.714Z,92.80
2018-03-23T02:09:37.835Z,92.80
2018-03-23T02:11:41.929Z,92.80
2018-03-23T02:13:45.242Z,92.90
2018-03-23T02:15:48.588Z,92.90
2018-03-23T02:17:52.207Z,92.90
2018-03-23T02:19:55.991Z,94.00
2018-03-23T02:21:59.334Z,94.00
2018-03-23T02:24:02.680Z,94.20
2018-03-23T02:26:05.998Z,92.90
2018-03-23T02:28:09.362Z,93.00
2018-03-23T02:30:13.460Z,94.30
2018-03-23T02:32:16.815Z,94.40
2018-03-23T02:34:20.158Z,93.00
2018-03-23T02:36:23.504Z,93.00
2018-03-23T02:38:27.605Z,93.30
2018-03-23T02:40:30.952Z,93.00
2018-03-23T02:42:34.279Z,93.20
2018-03-23T02:44:37.625Z,93.00
2018-03-23T02:46:40.960Z,93.00
2018-03-23T02:48:44.309Z,92.80
2018-03-23T02:50:48.429Z,92.80
2018-03-23T02:52:51.757Z,92.80
2018-03-23T02:54:55.098Z,93.00
2018-03-23T02:56:58.433Z,92.90
2018-03-23T02:59:01.761Z,93.00
2018-03-23T03:01:05.123Z,92.90
2018-03-23T03:03:08.492Z,92.80
2018-03-23T03:05:12.632Z,92.90
2018-03-23T03:07:15.999Z,93.00
2018-03-23T03:09:20.097Z,93.10
2018-03-23T03:11:24.211Z,92.90
2018-03-23T03:13:27.527Z,92.80
2018-03-23T03:15:30.862Z,94.00
2018-03-23T03:17:34.261Z,92.50
2018-03-23T03:19:37.612Z,92.60
2018-03-23T03:21:40.986Z,94.30
2018-03-23T03:23:44.364Z,93.20
2018-03-23T03:25:48.474Z,92.80
2018-03-23T03:27:51.896Z,92.60
2018-03-23T03:29:55.251Z,92.80
2018-03-23T03:31:58.593Z,94.10
2018-03-23T03:34:01.978Z,94.10
2018-03-23T03:36:05.318Z,92.70
2018-03-23T03:38:08.660Z,92.70
2018-03-23T03:40:12.753Z,92.80
2018-03-23T03:42:16.079Z,92.70
2018-03-23T03:44:19.407Z,93.10
2018-03-23T03:46:23.518Z,93.00
2018-03-23T03:48:27.626Z,93.00
2018-03-23T03:50:31.713Z,93.10
2018-03-23T03:52:35.074Z,92.80
2018-03-23T03:54:38.400Z,94.30
2018-03-23T03:56:41.718Z,92.90
2018-03-23T03:58:45.811Z,93.00
2018-03-23T04:00:49.164Z,93.00
2018-03-23T04:02:52.501Z,93.00
2018-03-23T04:04:56.590Z,94.00
2018-03-23T04:06:59.953Z,94.20
2018-03-23T04:09:03.287Z,92.90
2018-03-23T04:11:07.388Z,93.70
2018-03-23T04:13:10.726Z,93.60
2018-03-23T04:15:14.096Z,93.00
2018-03-23T04:17:18.201Z,92.90
2018-03-23T04:19:22.281Z,94.20
2018-03-23T04:21:25.634Z,94.20
2018-03-23T04:23:29.000Z,93.90
2018-03-23T04:25:32.423Z,94.00
2018-03-23T04:27:35.744Z,94.00
2018-03-23T04:29:39.094Z,93.60
2018-03-23T04:31:42.535Z,92.50
2018-03-23T04:33:45.871Z,92.80
2018-03-23T04:35:49.283Z,92.80
2018-03-23T04:37:53.209Z,94.20
2018-03-23T04:39:56.534Z,92.80
2018-03-23T04:42:00.631Z,92.90
2018-03-23T04:44:03.974Z,92.90
2018-03-23T04:46:07.320Z,93.60
2018-03-23T04:48:10.690Z,94.20
2018-03-23T04:50:14.021Z,93.10
2018-03-23T04:52:18.116Z,92.90
2018-03-23T04:54:21.452Z,92.90
2018-03-23T04:56:24.785Z,94.10
2018-03-23T04:58:28.125Z,92.90
2018-03-23T05:00:31.531Z,93.00
2018-03-23T05:02:35.710Z,92.80
2018-03-23T05:04:39.807Z,92.90
2018-03-23T05:06:43.909Z,93.10
2018-03-23T05:08:48.002Z,94.20
2018-03-23T05:10:51.367Z,94.20
2018-03-23T05:12:54.803Z,93.00
2018-03-23T05:14:58.185Z,92.90
2018-03-23T05:17:01.510Z,92.90
2018-03-23T05:19:04.969Z,94.20
2018-03-23T05:21:09.086Z,93.20
2018-03-23T05:23:12.495Z,93.10
2018-03-23T05:25:16.662Z,94.30
2018-03-23T05:27:21.198Z,94.10
2018-03-23T05:29:25.004Z,94.20
2018-03-23T05:31:29.117Z,93.20
2018-03-23T05:33:32.523Z,93.10
2018-03-23T05:35:36.611Z,94.30
2018-03-23T05:37:39.948Z,94.20
2018-03-23T05:39:43.449Z,94.00
2018-03-23T05:41:46.800Z,93.90
2018-03-23T05:43:51.015Z,93.10
2018-03-23T05:45:54.379Z,92.90
2018-03-23T05:47:57.722Z,93.20
2018-03-23T05:50:01.097Z,93.10
2018-03-23T05:52:04.482Z,92.60
2018-03-23T05:54:08.619Z,94.30
2018-03-23T05:56:12.021Z,94.30
2018-03-23T05:58:15.372Z,93.20
2018-03-23T06:00:19.475Z,93.10
2018-03-23T06:02:23.587Z,93.00
2018-03-23T06:04:26.950Z,93.00
2018-03-23T06:06:30.341Z,92.90
2018-03-23T06:08:33.655Z,92.90
2018-03-23T06:10:36.994Z,94.40
2018-03-23T06:12:40.336Z,92.90
2018-03-23T06:14:43.726Z,93.00
2018-03-23T06:16:47.094Z,93.00
2018-03-23T06:18:51.247Z,93.00
2018-03-23T06:20:54.612Z,93.00
2018-03-23T06:22:57.939Z,93.00
2018-03-23T06:25:02.082Z,92.80
2018-03-23T06:27:05.424Z,92.80
2018-03-23T06:29:08.762Z,93.00
2018-03-23T06:31:12.085Z,93.00
2018-03-23T06:33:15.478Z,94.40
2018-03-23T06:35:18.843Z,93.10
2018-03-23T06:37:22.178Z,93.40
2018-03-23T06:39:25.531Z,93.30
2018-03-23T06:41:28.928Z,94.60
2018-03-23T06:43:32.246Z,93.50
2018-03-23T06:45:35.604Z,93.30
2018-03-23T06:47:38.936Z,93.40
2018-03-23T06:49:42.255Z,93.50
2018-03-23T06:51:45.617Z,93.30
2018-03-23T06:53:48.929Z,94.50
2018-03-23T06:55:53.069Z,93.30
2018-03-23T06:57:57.622Z,93.30
2018-03-23T07:00:00.955Z,94.60
2018-03-23T07:02:04.322Z,93.40
2018-03-23T07:04:07.657Z,93.30
2018-03-23T07:06:11.048Z,93.40
2018-03-23T07:08:14.395Z,93.40
2018-03-23T07:10:18.528Z,94.20
2018-03-23T07:12:21.862Z,94.10
2018-03-23T07:14:25.206Z,94.50
2018-03-23T07:16:29.350Z,93.40
2018-03-23T07:18:32.699Z,93.40
2018-03-23T07:20:36.040Z,94.70
2018-03-23T07:22:39.375Z,93.40
2018-03-23T07:24:43.487Z,94.70
2018-03-23T07:26:47.673Z,93.40
2018-03-23T07:28:51.011Z,93.40
2018-03-23T07:30:54.354Z,94.60
2018-03-23T07:32:57.674Z,93.60
2018-03-23T07:35:01.762Z,94.90
2018-03-23T07:37:05.188Z,94.80
2018-03-23T07:39:08.545Z,93.40
2018-03-23T07:41:11.869Z,94.20
2018-03-23T07:43:15.226Z,94.80
2018-03-23T07:45:18.562Z,94.20
2018-03-23T07:47:21.950Z,93.60
2018-03-23T07:49:25.287Z,94.80
2018-03-23T07:51:28.641Z,94.20
2018-03-23T07:53:32.201Z,93.40
2018-03-23T07:55:35.536Z,94.20
2018-03-23T07:57:38.966Z,94.60
2018-03-23T07:59:42.319Z,94.80
2018-03-23T08:01:45.663Z,93.50
2018-03-23T08:03:49.777Z,93.60
2018-03-23T08:05:53.129Z,93.60
2018-03-23T08:07:56.478Z,94.30
2018-03-23T08:10:00.570Z,93.70
2018-03-23T08:12:04.275Z,93.80
2018-03-23T08:14:07.622Z,93.60
2018-03-23T08:16:10.989Z,93.70
2018-03-23T08:18:14.398Z,93.60
2018-03-23T08:20:17.844Z,93.30
2018-03-23T08:22:21.184Z,93.90
2018-03-23T08:24:25.626Z,94.50
2018-03-23T08:26:29.758Z,95.10
2018-03-23T08:28:33.156Z,95.10
2018-03-23T08:30:37.261Z,93.60
2018-03-23T08:32:41.354Z,94.80
2018-03-23T08:34:44.686Z,94.70
2018-03-23T08:36:48.042Z,93.50
2018-03-23T08:38:52.190Z,93.20
2018-03-23T08:40:55.527Z,93.30
2018-03-23T08:42:58.842Z,93.50
2018-03-23T08:45:02.193Z,93.20
2018-03-23T08:47:05.588Z,94.50
2018-03-23T08:49:08.988Z,94.30
2018-03-23T08:51:12.306Z,93.50
2018-03-23T08:53:15.628Z,93.60
2018-03-23T08:55:18.969Z,93.20
2018-03-23T08:57:22.299Z,93.00
2018-03-23T08:59:25.696Z,92.90
2018-03-23T09:01:29.046Z,93.00
2018-03-23T09:03:32.401Z,93.00
2018-03-23T09:05:35.750Z,93.20
2018-03-23T09:07:39.860Z,93.30
2018-03-23T09:09:44.021Z,93.00
2018-03-23T09:11:47.361Z,93.00
2018-03-23T09:13:50.734Z,93.00
2018-03-23T09:15:54.854Z,93.00
2018-03-23T09:17:58.183Z,93.00
2018-03-23T09:20:01.577Z,92.60
2018-03-23T09:22:04.925Z,93.00
2018-03-23T09:24:08.246Z,94.20
2018-03-23T09:26:11.601Z,94.30
2018-03-23T09:28:15.914Z,92.30
2018-03-23T09:30:19.271Z,92.60
2018-03-23T09:32:24.133Z,93.50
2018-03-23T09:34:27.468Z,93.70
2018-03-23T09:36:30.852Z,92.50
2018-03-23T09:38:34.244Z,92.20
2018-03-23T09:40:37.605Z,92.50
2018-03-23T09:42:40.959Z,92.80
2018-03-23T09:44:44.280Z,92.40
2018-03-23T09:46:47.622Z,93.10
2018-03-23T09:48:50.945Z,92.40
2018-03-23T09:50:54.321Z,94.00
2018-03-23T09:52:57.648Z,93.00
2018-03-23T09:55:01.042Z,93.10
2018-03-23T09:57:04.446Z,93.50
2018-03-23T09:59:07.800Z,93.00
2018-03-23T10:01:11.170Z,93.50
2018-03-23T10:03:14.527Z,93.20
2018-03-23T10:05:17.871Z,91.30
2018-03-23T10:07:21.220Z,91.90
2018-03-23T10:09:25.327Z,91.90
2018-03-23T10:11:29.445Z,92.20
2018-03-23T10:13:33.544Z,92.00
2018-03-23T10:15:37.645Z,92.30
2018-03-23T10:17:41.788Z,93.20
2018-03-23T10:19:46.670Z,92.50
2018-03-23T10:21:50.038Z,92.50
2018-03-23T10:23:53.354Z,92.70
2018-03-23T10:25:56.692Z,91.20
2018-03-23T10:28:00.038Z,91.90
2018-03-23T10:30:03.385Z,93.00
2018-03-23T10:32:06.730Z,90.90
2018-03-23T10:34:10.090Z,91.10
2018-03-23T10:36:13.427Z,90.70
2018-03-23T10:38:16.755Z,92.20
2018-03-23T10:40:20.111Z,91.10
2018-03-23T10:42:23.465Z,91.10
2018-03-23T10:44:26.795Z,92.50
2018-03-23T10:46:30.907Z,91.60
2018-03-23T10:48:35.004Z,92.10
2018-03-23T10:50:39.114Z,93.10
2018-03-23T10:52:42.541Z,93.10
2018-03-23T10:54:45.848Z,92.20
2018-03-23T10:56:49.188Z,92.80
2018-03-23T10:58:52.534Z,91.70
2018-03-23T11:01:02.239Z,93.10
2018-03-23T11:03:05.603Z,93.00
2018-03-23T11:05:08.946Z,90.90
2018-03-23T11:07:12.298Z,91.00
2018-03-23T11:09:16.446Z,90.50
2018-03-23T11:11:19.856Z,90.50
2018-03-23T11:13:23.227Z,90.70
2018-03-23T11:15:27.305Z,90.30
2018-03-23T11:17:31.392Z,91.70
2018-03-23T11:19:34.752Z,91.80
2018-03-23T11:21:38.113Z,88.20
2018-03-23T11:23:41.495Z,90.30
2018-03-23T11:25:45.750Z,91.00
2018-03-23T11:27:49.216Z,90.80
2018-03-23T11:29:52.798Z,91.90
2018-03-23T11:31:57.876Z,90.80
2018-03-23T11:34:01.238Z,90.70
2018-03-23T11:36:04.646Z,89.90
2018-03-23T11:38:08.013Z,89.10
2018-03-23T11:40:11.349Z,91.40
2018-03-23T11:42:14.679Z,91.50
2018-03-23T11:44:18.860Z,89.20
2018-03-23T11:46:22.198Z,89.10
2018-03-23T11:48:25.538Z,90.00
2018-03-23T11:50:29.409Z,90.90
2018-03-23T11:52:33.146Z,91.90
2018-03-23T11:54:38.092Z,88.40
2018-03-23T11:56:41.495Z,87.70
2018-03-23T11:58:45.705Z,88.70
2018-03-23T12:00:49.872Z,88.10
2018-03-23T12:02:53.227Z,88.10
2018-03-23T12:04:56.595Z,87.70
2018-03-23T12:07:00.690Z,90.40
2018-03-23T12:09:04.030Z,90.50
2018-03-23T12:11:07.368Z,89.80
2018-03-23T12:13:11.591Z,88.70
2018-03-23T12:15:14.975Z,88.70
2018-03-23T12:17:18.313Z,88.00
2018-03-23T12:19:21.685Z,88.00
2018-03-23T12:21:25.796Z,90.20
2018-03-23T12:23:34.027Z,90.20
2018-03-23T12:25:37.480Z,87.90
2018-03-23T12:27:41.637Z,89.20
2018-03-23T12:29:44.994Z,89.80
2018-03-23T12:31:49.114Z,88.00
2018-03-23T12:33:52.519Z,88.00
2018-03-23T12:35:55.993Z,90.40
2018-03-23T12:38:00.132Z,89.10
2018-03-23T12:40:03.462Z,89.00
2018-03-23T12:42:06.827Z,90.60
2018-03-23T12:44:10.268Z,91.10
2018-03-23T12:46:13.663Z,90.80
2018-03-23T12:48:17.026Z,91.20
2018-03-23T12:50:20.393Z,89.40
2018-03-23T12:52:23.778Z,91.30
2018-03-23T12:54:27.329Z,90.50
2018-03-23T12:56:30.770Z,90.80
2018-03-23T12:58:34.889Z,89.00
2018-03-23T13:00:38.254Z,89.00
2018-03-23T13:02:41.611Z,89.10
2018-03-23T13:04:44.948Z,90.00
2018-03-23T13:06:49.277Z,89.70
2018-03-23T13:08:52.599Z,86.70
2018-03-23T13:10:55.936Z,90.10
2018-03-23T13:12:59.279Z,88.60
2018-03-23T13:15:03.441Z,88.80
2018-03-23T13:17:06.846Z,89.70
2018-03-23T13:19:10.254Z,90.20
2018-03-23T13:21:13.616Z,87.90
2018-03-23T13:23:16.972Z,90.30
2018-03-23T13:25:21.106Z,88.20
2018-03-23T13:27:24.476Z,88.20
2018-03-23T13:29:28.586Z,90.50
2018-03-23T13:31:32.715Z,87.90
2018-03-23T13:33:36.067Z,87.70
2018-03-23T13:35:39.402Z,87.80
2018-03-23T13:37:42.792Z,87.80
2018-03-23T13:39:46.128Z,88.60
2018-03-23T13:41:49.590Z,87.10
2018-03-23T13:43:52.948Z,87.60
2018-03-23T13:45:57.085Z,87.90
2018-03-23T13:48:00.449Z,87.90
2018-03-23T13:50:04.661Z,86.20
2018-03-23T13:52:07.930Z,86.30
2018-03-23T13:54:11.269Z,86.60
2018-03-23T13:56:14.635Z,88.60
2018-03-23T13:58:18.878Z,86.70
2018-03-23T14:00:27.955Z,86.00
2018-03-23T14:02:31.305Z,86.50
2018-03-23T14:04:34.639Z,86.70
2018-03-23T14:06:37.985Z,87.20
2018-03-23T14:08:41.376Z,89.90
2018-03-23T14:10:44.706Z,90.00
2018-03-23T14:12:48.853Z,87.80
2018-03-23T14:14:52.199Z,87.70
2018-03-23T14:16:55.563Z,90.10
2018-03-23T14:18:59.016Z,87.80
2018-03-23T14:21:03.137Z,86.20
2018-03-23T14:23:07.288Z,86.30
2018-03-23T14:25:10.623Z,86.40
2018-03-23T14:27:13.985Z,87.70
2018-03-23T14:29:17.428Z,86.70
2018-03-23T14:31:20.787Z,88.00
2018-03-23T14:33:24.114Z,89.50
2018-03-23T14:35:27.465Z,88.00
2018-03-23T14:37:31.615Z,86.20
2018-03-23T14:39:35.783Z,86.00
2018-03-23T14:41:39.146Z,86.00
2018-03-23T14:43:42.511Z,85.80
2018-03-23T14:45:45.883Z,85.50
2018-03-23T14:47:49.987Z,86.40
2018-03-23T14:49:54.144Z,89.90
2018-03-23T14:51:57.453Z,89.80
2018-03-23T14:54:00.767Z,86.10
2018-03-23T14:56:04.101Z,89.00
2018-03-23T14:58:07.447Z,88.20
2018-03-23T15:00:11.672Z,87.70
2018-03-23T15:02:15.074Z,87.80
2018-03-23T15:04:18.418Z,86.00
2018-03-23T15:06:21.779Z,85.70
2018-03-23T15:08:25.107Z,88.50
2018-03-23T15:10:29.283Z,86.20
2018-03-23T15:12:32.630Z,86.20
2018-03-23T15:14:35.971Z,88.70
2018-03-23T15:16:39.315Z,86.30
2018-03-23T15:18:42.688Z,85.80
2018-03-23T15:20:46.084Z,88.30
2018-03-23T15:22:49.419Z,84.90
2018-03-23T15:24:52.787Z,86.00
2018-03-23T15:26:56.106Z,87.30
2018-03-23T15:28:59.457Z,88.20
2018-03-23T15:31:02.849Z,88.00
2018-03-23T15:33:06.212Z,86.40
2018-03-23T15:35:09.539Z,85.50
2018-03-23T15:37:12.895Z,84.80
2018-03-23T15:39:16.256Z,83.70
2018-03-23T15:41:19.622Z,86.20
2018-03-23T15:43:23.842Z,85.20
2018-03-23T15:45:27.176Z,84.60
2018-03-23T15:47:30.526Z,83.70
2018-03-23T15:49:34.647Z,83.90
2018-03-23T15:51:38.028Z,83.90
2018-03-23T15:53:42.133Z,85.40
2018-03-23T15:55:45.483Z,84.70
2018-03-23T15:57:48.826Z,81.50
2018-03-23T15:59:52.925Z,81.50
2018-03-23T16:01:57.122Z,82.60
2018-03-23T16:04:00.525Z,82.50
2018-03-23T16:06:03.891Z,82.20
2018-03-23T16:08:08.341Z,83.90
2018-03-23T16:10:12.448Z,81.30
2018-03-23T16:12:16.593Z,84.30
2018-03-23T16:14:19.942Z,84.30
2018-03-23T16:16:24.816Z,82.30
2018-03-23T16:18:28.225Z,82.20
2018-03-23T16:20:31.600Z,85.10
2018-03-23T16:22:35.034Z,83.30
2018-03-23T16:24:39.159Z,84.30
2018-03-23T16:26:43.272Z,87.70
2018-03-23T16:28:47.360Z,84.80
2018-03-23T16:30:50.684Z,84.10
2018-03-23T16:32:54.142Z,84.60
2018-03-23T16:34:57.545Z,85.00
2018-03-23T16:37:00.906Z,84.50
2018-03-23T16:39:04.240Z,86.90
2018-03-23T16:41:07.625Z,85.50
2018-03-23T16:43:11.017Z,85.50
2018-03-23T16:45:15.120Z,84.60
2018-03-23T16:47:19.269Z,84.50
2018-03-23T16:49:22.698Z,86.60
2018-03-23T16:51:26.038Z,83.60
2018-03-23T16:53:30.156Z,83.80
2018-03-23T16:55:33.498Z,83.90
2018-03-23T16:57:36.841Z,83.90
2018-03-23T16:59:40.213Z,86.40
2018-03-23T17:01:43.584Z,84.00
2018-03-23T17:03:46.954Z,87.30
2018-03-23T17:05:50.297Z,84.70
2018-03-23T17:07:53.652Z,85.10
2018-03-23T17:09:57.065Z,85.00
2018-03-23T17:12:01.185Z,88.00
2018-03-23T17:14:04.592Z,87.90
2018-03-23T17:16:07.954Z,86.10
2018-03-23T17:18:11.296Z,87.70
2018-03-23T17:20:14.765Z,85.20
2018-03-23T17:22:18.120Z,84.40
2018-03-23T17:24:21.472Z,86.10
2018-03-23T17:26:25.706Z,86.20
2018-03-23T17:28:29.156Z,86.70
2018-03-23T17:30:32.536Z,86.10
2018-03-23T17:32:35.903Z,86.20
2018-03-23T17:34:40.163Z,87.30
2018-03-23T17:36:44.327Z,88.10
2018-03-23T17:38:48.464Z,89.00
2018-03-23T17:40:52.572Z,89.30
2018-03-23T17:42:56.005Z,89.30
2018-03-23T17:44:59.420Z,89.50
2018-03-23T17:47:03.954Z,90.90
2018-03-23T17:49:07.533Z,90.90
2018-03-23T17:51:10.862Z,91.00
2018-03-23T17:53:14.200Z,89.60
2018-03-23T17:55:17.592Z,88.80
2018-03-23T17:57:20.981Z,89.00
2018-03-23T17:59:24.416Z,89.30
2018-03-23T18:01:27.792Z,91.00
2018-03-23T18:03:31.130Z,90.00
2018-03-23T18:05:34.522Z,89.50
2018-03-23T18:07:37.866Z,90.10
2018-03-23T18:09:41.236Z,90.00
2018-03-23T18:11:44.619Z,90.00
2018-03-23T18:13:48.124Z,90.50
2018-03-23T18:15:53.171Z,91.20
2018-03-23T18:17:56.595Z,91.20
2018-03-23T18:20:00.687Z,90.90
2018-03-23T18:22:04.039Z,90.90
2018-03-23T18:24:07.362Z,91.70
2018-03-23T18:26:10.829Z,92.10
2018-03-23T18:28:14.133Z,91.20
2018-03-23T18:30:18.189Z,92.20
2018-03-23T18:32:22.393Z,91.10
2018-03-23T18:34:25.749Z,92.30
2018-03-23T18:36:29.102Z,91.00
2018-03-23T18:38:32.427Z,90.80
2018-03-23T18:40:35.791Z,90.70
2018-03-23T18:42:39.141Z,90.90
2018-03-23T18:44:42.453Z,92.10
2018-03-23T18:46:45.818Z,91.60
2018-03-23T18:48:49.159Z,91.70
2018-03-23T18:50:52.501Z,89.60
2018-03-23T18:52:55.836Z,89.00
2018-03-23T18:54:59.255Z,89.10
2018-03-23T18:57:03.261Z,91.00
2018-03-23T18:59:07.436Z,91.70
2018-03-23T19:01:11.621Z,91.40
2018-03-23T19:03:15.169Z,91.40
2018-03-23T19:05:19.329Z,92.50
2018-03-23T19:07:23.528Z,91.30
2018-03-23T19:09:26.843Z,91.30
2018-03-23T19:11:30.939Z,92.30
2018-03-23T19:13:34.265Z,92.40
2018-03-23T19:15:37.705Z,91.10
2018-03-23T19:17:41.075Z,91.00
2018-03-23T19:19:45.298Z,90.80
2018-03-23T19:21:50.377Z,90.50
2018-03-23T19:23:53.813Z,90.50
2018-03-23T19:25:57.666Z,91.90
2018-03-23T19:28:02.056Z,92.20
2018-03-23T19:30:05.569Z,91.10
2018-03-23T19:32:09.717Z,91.10
2018-03-23T19:34:14.113Z,92.50
2018-03-23T19:36:17.970Z,92.50
2018-03-23T19:38:21.500Z,92.40
2018-03-23T19:40:25.451Z,92.20
2018-03-23T19:42:30.128Z,92.60
2018-03-23T19:44:34.111Z,92.50
2018-03-23T19:46:38.512Z,91.50
2018-03-23T19:48:41.919Z,91.50
2018-03-23T19:50:45.589Z,92.00
2018-03-23T19:52:49.058Z,92.10
2018-03-23T19:54:52.473Z,92.20
2018-03-23T19:56:55.869Z,93.50
2018-03-23T19:58:59.565Z,92.40
2018-03-23T20:01:03.032Z,93.50
2018-03-23T20:03:06.410Z,92.40
2018-03-23T20:05:10.604Z,92.20
2018-03-23T20:07:14.728Z,93.40
2018-03-23T20:09:18.863Z,92.30
2018-03-23T20:11:22.716Z,92.30
2018-03-23T20:13:26.080Z,93.30
2018-03-23T20:15:29.428Z,93.20
2018-03-23T20:17:38.429Z,92.90
2018-03-23T20:19:41.794Z,91.60
2018-03-23T20:21:45.117Z,91.70
2018-03-23T20:23:48.446Z,92.80
2018-03-23T20:25:51.798Z,91.40
2018-03-23T20:28:01.432Z,91.60
2018-03-23T20:30:05.668Z,91.70
2018-03-23T20:32:15.663Z,91.80
2018-03-23T20:34:19.236Z,91.80
2018-03-23T20:36:22.648Z,91.90
2018-03-23T20:38:26.857Z,91.80
2018-03-23T20:40:30.267Z,91.80
2018-03-23T20:42:33.638Z,93.00
2018-03-23T20:44:37.909Z,91.90
2018-03-23T20:46:42.043Z,91.90
2018-03-23T20:48:45.406Z,91.90
2018-03-23T20:50:48.801Z,92.80
2018-03-23T20:52:52.905Z,91.70
2018-03-23T20:54:56.304Z,91.70
2018-03-23T20:57:00.436Z,93.20
2018-03-23T20:59:03.807Z,92.80
2018-03-23T21:01:07.977Z,91.10
2018-03-23T21:03:11.303Z,91.10
2018-03-23T21:05:15.390Z,91.30
2018-03-23T21:07:18.735Z,91.40
2018-03-23T21:09:22.056Z,91.70
2018-03-23T21:11:25.414Z,91.70
2018-03-23T21:13:28.769Z,93.00
2018-03-23T21:15:32.860Z,91.90
2018-03-23T21:17:36.982Z,92.90
2018-03-23T21:19:41.101Z,91.80
2018-03-23T21:21:45.253Z,92.60
2018-03-23T21:23:48.613Z,92.50
2018-03-23T21:25:52.723Z,92.10
2018-03-23T21:27:56.971Z,92.40
2018-03-23T21:30:00.390Z,92.20
2018-03-23T21:32:03.962Z,92.70
2018-03-23T21:34:08.203Z,92.30
2018-03-23T21:36:11.597Z,92.30
2018-03-23T21:38:15.434Z,93.50
2018-03-23T21:40:19.075Z,92.30
2018-03-23T21:42:23.359Z,92.30
2018-03-23T21:44:26.750Z,92.40
2018-03-23T21:46:30.159Z,92.40
2018-03-23T21:48:33.682Z,92.30
2018-03-23T21:50:37.832Z,93.40
2018-03-23T21:52:41.221Z,93.40
2018-03-23T21:54:45.318Z,93.60
2018-03-23T21:56:49.055Z,93.60
2018-03-23T21:58:52.946Z,92.50
2018-03-23T22:00:56.282Z,92.60
2018-03-23T22:02:59.786Z,92.50
2018-03-23T22:05:04.076Z,92.50
2018-03-23T22:07:07.590Z,92.50
2018-03-23T22:09:11.098Z,93.30
2018-03-23T22:11:14.580Z,92.30
2018-03-23T22:13:18.160Z,93.20
2018-03-23T22:15:21.789Z,91.00
2018-03-23T22:17:25.453Z,91.30
2018-03-23T22:19:29.800Z,91.80
2018-03-23T22:21:33.371Z,91.80
2018-03-23T22:23:36.892Z,91.80
2018-03-23T22:25:40.492Z,91.50
2018-03-23T22:27:44.119Z,91.70
2018-03-23T22:29:48.430Z,91.70
2018-03-23T22:31:51.881Z,91.70
2018-03-23T22:33:56.847Z,91.40
2018-03-23T22:36:00.430Z,91.40
2018-03-23T22:38:04.653Z,91.20
2018-03-23T22:40:08.533Z,90.90
2018-03-23T22:42:12.775Z,93.10
2018-03-23T22:44:16.477Z,93.00
2018-03-23T22:46:19.946Z,93.20
2018-03-23T22:48:23.361Z,93.10
2018-03-23T22:50:26.902Z,92.00
2018-03-23T22:52:31.109Z,92.00
2018-03-23T22:54:34.578Z,92.10
2018-03-23T22:56:39.016Z,91.90
2018-03-23T22:58:42.486Z,91.80
2018-03-23T23:00:46.016Z,92.70
2018-03-23T23:02:49.458Z,92.50
2018-03-23T23:04:53.231Z,91.40
2018-03-23T23:06:57.635Z,91.70
2018-03-23T23:09:01.907Z,91.50
2018-03-23T23:11:05.345Z,91.40
2018-03-23T23:13:08.778Z,91.40
2018-03-23T23:15:12.351Z,91.40
2018-03-23T23:17:16.611Z,91.40
2018-03-23T23:19:20.487Z,91.30
2018-03-23T23:21:24.705Z,91.20
2018-03-23T23:23:29.119Z,91.10
2018-03-23T23:25:33.313Z,92.10
2018-03-23T23:27:36.684Z,92.10
2018-03-23T23:29:40.280Z,91.00
2018-03-23T23:31:43.733Z,90.70
2018-03-23T23:33:47.228Z,90.90
2018-03-23T23:35:50.754Z,92.30
2018-03-23T23:37:54.184Z,92.00
2018-03-23T23:39:58.349Z,91.40
2018-03-23T23:42:01.778Z,91.40
2018-03-23T23:44:05.519Z,91.20
2018-03-23T23:46:08.927Z,91.90
2018-03-23T23:48:12.419Z,90.90
2018-03-23T23:50:15.876Z,90.70
2018-03-23T23:52:19.352Z,90.70
2018-03-23T23:54:22.725Z,90.60
2018-03-23T23:56:26.278Z,90.80
2018-03-23T23:58:29.677Z,90.50
